createdAt,value
2018-07-08T00:00:30.080Z,16.7
2018-07-08T00:01:20.166Z,16.7
2018-07-08T00:02:10.213Z,16.7
2018-07-08T00:03:00.313Z,16.7
2018-07-08T00:03:50.072Z,16.6
2018-07-08T00:04:40.403Z,16.6
2018-07-08T00:05:30.496Z,16.7
2018-07-08T00:06:20.256Z,16.7
2018-07-08T00:07:10.605Z,16.7
2018-07-08T00:08:00.700Z,16.6
2018-07-08T00:08:50.460Z,16.6
2018-07-08T00:09:40.797Z,16.6
2018-07-08T00:10:30.913Z,16.6
2018-07-08T00:11:20.922Z,16.6
2018-07-08T00:12:10.984Z,16.6
2018-07-08T00:13:01.055Z,16.6
2018-07-08T00:13:51.143Z,16.6
2018-07-08T00:14:40.906Z,16.6
2018-07-08T00:15:31.251Z,16.6
2018-07-08T00:16:21.308Z,16.6
2018-07-08T00:17:11.382Z,16.6
2018-07-08T00:18:01.448Z,16.6
2018-07-08T00:18:50.970Z,16.6
2018-07-08T00:19:41.606Z,16.6
2018-07-08T00:20:31.390Z,16.6
2018-07-08T00:21:21.432Z,16.6
2018-07-08T00:22:11.776Z,16.6
2018-07-08T00:23:01.875Z,16.6
2018-07-08T00:23:51.650Z,16.6
2018-07-08T00:24:41.994Z,16.6
2018-07-08T00:25:31.758Z,16.6
2018-07-08T00:26:22.159Z,16.6
2018-07-08T00:27:11.997Z,16.6
2018-07-08T00:28:02.237Z,16.6
2018-07-08T00:28:52.305Z,16.6
2018-07-08T00:29:41.801Z,16.6
2018-07-08T00:30:32.444Z,16.6
2018-07-08T00:31:22.239Z,16.6
2018-07-08T00:32:12.282Z,16.6
2018-07-08T00:33:02.637Z,16.6
2018-07-08T00:33:52.716Z,16.6
2018-07-08T00:34:42.784Z,16.6
2018-07-08T00:35:32.885Z,16.6
2018-07-08T00:36:22.891Z,16.6
2018-07-08T00:37:12.690Z,16.6
2018-07-08T00:38:02.744Z,16.6
2018-07-08T00:38:53.101Z,16.5
2018-07-08T00:39:42.946Z,16.6
2018-07-08T00:40:32.971Z,16.6
2018-07-08T00:41:23.278Z,16.6
2018-07-08T00:42:13.060Z,16.6
2018-07-08T00:43:03.126Z,16.6
2018-07-08T00:43:53.201Z,16.6
2018-07-08T00:44:43.274Z,16.5
2018-07-08T00:45:33.616Z,16.6
2018-07-08T00:46:23.684Z,16.6
2018-07-08T00:47:13.469Z,16.5
2018-07-08T00:48:03.825Z,16.5
2018-07-08T00:48:53.865Z,16.5
2018-07-08T00:49:43.922Z,16.5
2018-07-08T00:50:33.995Z,16.5
2018-07-08T00:51:24.056Z,16.5
2018-07-08T00:52:14.124Z,16.5
2018-07-08T00:53:04.210Z,16.5
2018-07-08T00:53:54.349Z,16.5
2018-07-08T00:54:44.340Z,16.5
2018-07-08T00:55:34.380Z,16.5
2018-07-08T00:56:24.465Z,16.5
2018-07-08T00:57:13.957Z,16.4
2018-07-08T00:58:04.582Z,16.5
2018-07-08T00:58:54.655Z,16.4
2018-07-08T00:59:44.719Z,16.4
2018-07-08T01:00:34.777Z,16.5
2018-07-08T01:01:24.870Z,16.5
2018-07-08T01:02:14.644Z,16.4
2018-07-08T01:03:05.005Z,16.4
2018-07-08T01:03:55.042Z,16.4
2018-07-08T01:04:45.111Z,16.4
2018-07-08T01:05:35.165Z,16.4
2018-07-08T01:06:24.966Z,16.4
2018-07-08T01:07:15.318Z,16.4
2018-07-08T01:08:05.387Z,16.4
2018-07-08T01:08:55.439Z,16.4
2018-07-08T01:09:45.496Z,16.4
2018-07-08T01:10:35.572Z,16.4
2018-07-08T01:11:25.625Z,16.4
2018-07-08T01:12:15.424Z,16.4
2018-07-08T01:13:05.474Z,16.4
2018-07-08T01:13:55.809Z,16.4
2018-07-08T01:14:45.334Z,16.4
2018-07-08T01:15:35.970Z,16.4
2018-07-08T01:16:26.074Z,16.4
2018-07-08T01:17:15.535Z,16.4
2018-07-08T01:18:06.173Z,16.3
2018-07-08T01:18:55.961Z,16.4
2018-07-08T01:19:46.290Z,16.4
2018-07-08T01:20:36.072Z,16.4
2018-07-08T01:21:26.429Z,16.3
2018-07-08T01:22:16.482Z,16.3
2018-07-08T01:23:06.271Z,16.4
2018-07-08T01:23:56.057Z,16.3
2018-07-08T01:24:46.384Z,16.3
2018-07-08T01:25:36.756Z,16.3
2018-07-08T01:26:26.804Z,16.3
2018-07-08T01:27:16.884Z,16.3
2018-07-08T01:28:06.939Z,16.3
2018-07-08T01:28:56.721Z,16.3
2018-07-08T01:29:47.076Z,16.3
2018-07-08T01:30:36.860Z,16.3
2018-07-08T01:31:26.912Z,16.3
2018-07-08T01:32:17.280Z,16.3
2018-07-08T01:33:07.338Z,16.3
2018-07-08T01:33:57.398Z,16.3
2018-07-08T01:34:47.183Z,16.3
2018-07-08T01:35:37.530Z,16.3
2018-07-08T01:36:27.573Z,16.3
2018-07-08T01:37:17.370Z,16.3
2018-07-08T01:38:07.440Z,16.3
2018-07-08T01:38:57.793Z,16.3
2018-07-08T01:39:47.563Z,16.3
2018-07-08T01:40:37.646Z,16.3
2018-07-08T01:41:27.964Z,16.3
2018-07-08T01:42:18.054Z,16.3
2018-07-08T01:43:07.544Z,16.3
2018-07-08T01:43:58.163Z,16.3
2018-07-08T01:44:48.247Z,16.3
2018-07-08T01:45:38.299Z,16.3
2018-07-08T01:46:28.382Z,16.3
2018-07-08T01:47:18.424Z,16.3
2018-07-08T01:48:08.214Z,16.3
2018-07-08T01:48:58.282Z,16.3
2018-07-08T01:49:48.343Z,16.3
2018-07-08T01:50:38.132Z,16.3
2018-07-08T01:51:28.474Z,16.3
2018-07-08T01:52:18.826Z,16.3
2018-07-08T01:53:08.901Z,16.3
2018-07-08T01:53:58.692Z,16.3
2018-07-08T01:54:49.037Z,16.3
2018-07-08T01:55:38.806Z,16.3
2018-07-08T01:56:29.147Z,16.3
2018-07-08T01:57:19.218Z,16.3
2018-07-08T01:58:08.723Z,16.3
2018-07-08T01:58:59.350Z,16.3
2018-07-08T01:59:49.417Z,16.3
2018-07-08T02:00:39.484Z,16.3
2018-07-08T02:01:29.546Z,16.3
2018-07-08T02:02:19.626Z,16.3
2018-07-08T02:03:09.390Z,16.3
2018-07-08T02:03:59.760Z,16.3
2018-07-08T02:04:49.527Z,16.3
2018-07-08T02:05:39.931Z,16.3
2018-07-08T02:06:29.650Z,16.3
2018-07-08T02:07:20.003Z,16.3
2018-07-08T02:08:09.837Z,16.3
2018-07-08T02:09:00.148Z,16.3
2018-07-08T02:09:49.925Z,16.3
2018-07-08T02:10:39.990Z,16.3
2018-07-08T02:11:30.047Z,16.2
2018-07-08T02:12:20.408Z,16.2
2018-07-08T02:13:10.455Z,16.3
2018-07-08T02:14:00.516Z,16.2
2018-07-08T02:14:50.579Z,16.2
2018-07-08T02:15:40.385Z,16.2
2018-07-08T02:16:30.448Z,16.2
2018-07-08T02:17:20.801Z,16.2
2018-07-08T02:18:10.899Z,16.2
2018-07-08T02:19:00.643Z,16.2
2018-07-08T02:19:51.007Z,16.2
2018-07-08T02:20:41.093Z,16.2
2018-07-08T02:21:30.552Z,16.2
2018-07-08T02:22:20.884Z,16.2
2018-07-08T02:23:11.246Z,16.2
2018-07-08T02:24:01.302Z,16.2
2018-07-08T02:24:51.099Z,16.2
2018-07-08T02:25:41.430Z,16.1
2018-07-08T02:26:31.204Z,16.2
2018-07-08T02:27:21.324Z,16.2
2018-07-08T02:28:11.638Z,16.2
2018-07-08T02:29:01.412Z,16.1
2018-07-08T02:29:51.492Z,16.2
2018-07-08T02:30:41.556Z,16.1
2018-07-08T02:31:31.906Z,16.1
2018-07-08T02:32:21.416Z,16.1
2018-07-08T02:33:12.034Z,16.1
2018-07-08T02:34:02.101Z,16.1
2018-07-08T02:34:51.876Z,16.1
2018-07-08T02:35:41.942Z,16.1
2018-07-08T02:36:32.284Z,16.1
2018-07-08T02:37:22.364Z,16.1
2018-07-08T02:38:12.139Z,16.1
2018-07-08T02:39:01.922Z,16.1
2018-07-08T02:39:52.547Z,16.1
2018-07-08T02:40:42.634Z,16.1
2018-07-08T02:41:32.674Z,16.1
2018-07-08T02:42:22.782Z,16.1
2018-07-08T02:43:12.801Z,16.1
2018-07-08T02:44:02.603Z,16.1
2018-07-08T02:44:52.959Z,16.1
2018-07-08T02:45:43.015Z,16.1
2018-07-08T02:46:33.063Z,16.1
2018-07-08T02:47:23.137Z,16.1
2018-07-08T02:48:13.208Z,16.1
2018-07-08T02:49:03.273Z,16.1
2018-07-08T02:49:53.338Z,16.1
2018-07-08T02:50:42.837Z,16.1
2018-07-08T02:51:33.193Z,16.1
2018-07-08T02:52:23.248Z,16.1
2018-07-08T02:53:13.574Z,16
2018-07-08T02:54:03.641Z,16.1
2018-07-08T02:54:53.146Z,16.1
2018-07-08T02:55:43.797Z,16.1
2018-07-08T02:56:33.836Z,16
2018-07-08T02:57:23.647Z,16
2018-07-08T02:58:13.973Z,16
2018-07-08T02:59:04.065Z,16
2018-07-08T02:59:54.131Z,16
2018-07-08T03:00:43.608Z,16
2018-07-08T03:01:34.260Z,16
2018-07-08T03:02:24.323Z,16
2018-07-08T03:03:14.365Z,16
2018-07-08T03:04:04.429Z,16
2018-07-08T03:04:54.510Z,16
2018-07-08T03:05:44.310Z,16
2018-07-08T03:06:34.345Z,16
2018-07-08T03:07:24.715Z,16
2018-07-08T03:08:14.472Z,16
2018-07-08T03:09:04.818Z,16
2018-07-08T03:09:54.892Z,16
2018-07-08T03:10:44.674Z,16
2018-07-08T03:11:34.747Z,15.9
2018-07-08T03:12:24.791Z,16
2018-07-08T03:13:15.161Z,16
2018-07-08T03:14:05.209Z,16
2018-07-08T03:14:55.286Z,16
2018-07-08T03:15:45.336Z,16
2018-07-08T03:16:35.414Z,16
2018-07-08T03:17:25.462Z,16
2018-07-08T03:18:15.528Z,16
2018-07-08T03:19:05.333Z,16
2018-07-08T03:19:55.663Z,16
2018-07-08T03:20:45.729Z,16
2018-07-08T03:21:35.824Z,16
2018-07-08T03:22:25.876Z,16
2018-07-08T03:23:15.919Z,16
2018-07-08T03:24:05.708Z,16
2018-07-08T03:24:55.790Z,16
2018-07-08T03:25:46.263Z,16
2018-07-08T03:26:35.916Z,16
2018-07-08T03:27:26.237Z,16
2018-07-08T03:28:16.311Z,16
2018-07-08T03:29:06.111Z,16
2018-07-08T03:29:56.186Z,16
2018-07-08T03:30:46.499Z,16
2018-07-08T03:31:36.601Z,16
2018-07-08T03:32:26.648Z,16.1
2018-07-08T03:33:16.697Z,16
2018-07-08T03:34:06.794Z,16
2018-07-08T03:34:56.869Z,16
2018-07-08T03:35:46.630Z,16
2018-07-08T03:36:36.956Z,16
2018-07-08T03:37:27.042Z,16.1
2018-07-08T03:38:16.814Z,16.1
2018-07-08T03:39:06.890Z,16.1
2018-07-08T03:39:57.233Z,16.1
2018-07-08T03:40:47.290Z,16.1
2018-07-08T03:41:37.072Z,16.1
2018-07-08T03:42:27.419Z,16.1
2018-07-08T03:43:17.478Z,16.1
2018-07-08T03:44:07.558Z,16.1
2018-07-08T03:44:57.350Z,16.1
2018-07-08T03:45:47.673Z,16.1
2018-07-08T03:46:37.744Z,16.1
2018-07-08T03:47:27.865Z,16.1
2018-07-08T03:48:17.310Z,16.1
2018-07-08T03:49:07.660Z,16.1
2018-07-08T03:49:58.005Z,16.1
2018-07-08T03:50:48.067Z,16.1
2018-07-08T03:51:38.132Z,16.2
2018-07-08T03:52:27.919Z,16.2
2018-07-08T03:53:18.006Z,16.2
2018-07-08T03:54:07.777Z,16.2
2018-07-08T03:54:58.386Z,16.2
2018-07-08T03:55:48.464Z,16.2
2018-07-08T03:56:38.521Z,16.3
2018-07-08T03:57:28.582Z,16.3
2018-07-08T03:58:18.663Z,16.3
2018-07-08T03:59:08.434Z,16.3
2018-07-08T03:59:58.780Z,16.3
2018-07-08T04:00:48.834Z,16.3
2018-07-08T04:01:38.905Z,16.4
2018-07-08T04:02:28.966Z,16.4
2018-07-08T04:03:18.750Z,16.4
2018-07-08T04:04:09.126Z,16.4
2018-07-08T04:04:59.155Z,16.4
2018-07-08T04:05:48.944Z,16.4
2018-07-08T04:06:39.292Z,16.5
2018-07-08T04:07:29.376Z,16.5
2018-07-08T04:08:19.442Z,16.5
2018-07-08T04:09:09.489Z,16.6
2018-07-08T04:09:59.560Z,16.6
2018-07-08T04:10:49.332Z,16.6
2018-07-08T04:11:39.416Z,16.6
2018-07-08T04:12:29.760Z,16.6
2018-07-08T04:13:19.267Z,16.6
2018-07-08T04:14:09.909Z,16.7
2018-07-08T04:14:59.963Z,16.8
2018-07-08T04:15:50.010Z,16.8
2018-07-08T04:16:40.076Z,16.8
2018-07-08T04:17:30.218Z,16.8
2018-07-08T04:18:20.209Z,16.8
2018-07-08T04:19:09.990Z,16.8
2018-07-08T04:20:00.337Z,16.9
2018-07-08T04:20:50.427Z,16.9
2018-07-08T04:21:40.472Z,16.9
2018-07-08T04:22:30.532Z,16.9
2018-07-08T04:23:20.053Z,16.9
2018-07-08T04:25:50.532Z,17.1
2018-07-08T04:26:40.879Z,17.1
2018-07-08T04:27:30.944Z,17.1
2018-07-08T04:28:20.702Z,17.1
2018-07-08T04:29:11.062Z,17.2
2018-07-08T04:30:00.849Z,17.3
2018-07-08T04:30:50.924Z,17.3
2018-07-08T04:31:41.251Z,17.3
2018-07-08T04:32:31.036Z,17.4
2018-07-08T04:33:21.381Z,17.4
2018-07-08T04:34:11.165Z,17.4
2018-07-08T04:35:01.524Z,17.5
2018-07-08T04:35:51.570Z,17.6
2018-07-08T04:36:41.668Z,17.6
2018-07-08T04:37:31.713Z,17.6
2018-07-08T04:38:21.766Z,17.7
2018-07-08T04:39:11.573Z,17.7
2018-07-08T04:40:01.912Z,17.8
2018-07-08T04:40:51.989Z,17.8
2018-07-08T04:41:41.744Z,17.8
2018-07-08T04:42:32.091Z,17.9
2018-07-08T04:43:22.152Z,17.9
2018-07-08T04:44:12.221Z,17.9
2018-07-08T04:45:02.327Z,18
2018-07-08T04:45:51.783Z,18
2018-07-08T04:46:42.149Z,18.1
2018-07-08T04:47:32.484Z,18.1
2018-07-08T04:48:22.551Z,18.1
2018-07-08T04:49:12.892Z,18.2
2018-07-08T04:50:02.413Z,18.3
2018-07-08T04:50:52.196Z,18.3
2018-07-08T04:51:42.543Z,18.3
2018-07-08T04:52:32.910Z,18.4
2018-07-08T04:53:22.663Z,18.4
2018-07-08T04:54:12.727Z,18.4
2018-07-08T04:55:03.065Z,18.4
2018-07-08T04:55:53.129Z,18.5
2018-07-08T04:56:42.938Z,18.6
2018-07-08T04:57:33.263Z,18.6
2018-07-08T05:00:03.194Z,18.8
2018-07-08T05:00:53.310Z,18.8
2018-07-08T05:01:43.595Z,18.8
2018-07-08T05:02:33.658Z,18.9
2018-07-08T05:03:23.727Z,18.9
2018-07-08T05:04:13.800Z,19
2018-07-08T05:05:03.887Z,19.1
2018-07-08T05:05:53.950Z,19.1
2018-07-08T05:06:44.008Z,19.1
2018-07-08T05:07:34.046Z,19.2
2018-07-08T05:08:24.115Z,19.3
2018-07-08T05:09:14.205Z,19.3
2018-07-08T05:10:04.241Z,19.3
2018-07-08T05:10:54.320Z,19.4
2018-07-08T05:11:44.368Z,19.4
2018-07-08T05:12:34.428Z,19.4
2018-07-08T05:13:24.502Z,19.5
2018-07-08T05:14:14.288Z,19.5
2018-07-08T05:15:04.629Z,19.6
2018-07-08T05:15:54.683Z,19.6
2018-07-08T05:16:44.210Z,19.6
2018-07-08T05:17:34.814Z,19.6
2018-07-08T05:18:24.602Z,19.7
2018-07-08T05:19:14.954Z,19.7
2018-07-08T05:20:04.748Z,19.7
2018-07-08T05:20:55.097Z,19.8
2018-07-08T05:21:45.158Z,19.8
2018-07-08T05:22:35.220Z,19.8
2018-07-08T05:23:25.300Z,19.8
2018-07-08T05:24:15.337Z,19.8
2018-07-08T05:25:05.123Z,19.8
2018-07-08T05:25:55.492Z,19.9
2018-07-08T05:26:45.548Z,19.9
2018-07-08T05:27:35.339Z,19.9
2018-07-08T05:28:25.676Z,19.9
2018-07-08T05:29:15.739Z,19.9
2018-07-08T05:30:05.811Z,19.9
2018-07-08T05:30:55.865Z,19.9
2018-07-08T05:31:45.952Z,19.9
2018-07-08T05:32:35.716Z,19.9
2018-07-08T05:33:25.781Z,19.9
2018-07-08T05:34:16.137Z,19.9
2018-07-08T05:35:06.209Z,19.9
2018-07-08T05:35:56.250Z,19.9
2018-07-08T05:36:46.333Z,20
2018-07-08T05:37:36.405Z,20
2018-07-08T05:38:26.452Z,20.1
2018-07-08T05:39:16.518Z,20.1
2018-07-08T05:40:06.297Z,20.1
2018-07-08T05:40:56.650Z,20.1
2018-07-08T05:41:46.424Z,20.1
2018-07-08T05:42:36.769Z,20.2
2018-07-08T05:43:26.832Z,20.2
2018-07-08T05:44:16.901Z,20.3
2018-07-08T05:45:06.960Z,20.3
2018-07-08T05:45:57.051Z,20.4
2018-07-08T05:46:46.828Z,20.4
2018-07-08T05:47:37.172Z,20.4
2018-07-08T05:48:27.213Z,20.5
2018-07-08T05:49:17.005Z,20.6
2018-07-08T05:50:07.169Z,20.6
2018-07-08T05:50:57.412Z,20.7
2018-07-08T05:51:47.485Z,20.8
2018-07-08T05:52:37.549Z,20.8
2018-07-08T05:53:27.620Z,20.8
2018-07-08T05:54:17.695Z,20.9
2018-07-08T05:55:07.756Z,20.9
2018-07-08T05:55:57.812Z,21.1
2018-07-08T05:57:37.977Z,21.2
2018-07-08T05:58:27.723Z,21.3
2018-07-08T05:59:17.794Z,21.3
2018-07-08T06:00:08.135Z,21.4
2018-07-08T06:00:58.214Z,21.5
2018-07-08T06:01:48.001Z,21.6
2018-07-08T06:02:38.066Z,21.7
2018-07-08T06:03:28.412Z,21.8
2018-07-08T06:04:18.455Z,21.9
2018-07-08T06:05:08.519Z,21.9
2018-07-08T06:05:58.583Z,22.1
2018-07-08T06:06:48.643Z,22.1
2018-07-08T06:07:38.764Z,22.2
2018-07-08T06:08:28.511Z,22.3
2018-07-08T06:09:18.886Z,22.3
2018-07-08T06:10:08.915Z,22.3
2018-07-08T06:10:58.716Z,22.4
2018-07-08T06:11:49.048Z,22.4
2018-07-08T06:12:39.103Z,22.4
2018-07-08T06:13:29.166Z,22.4
2018-07-08T06:14:18.969Z,22.5
2018-07-08T06:15:09.297Z,22.5
2018-07-08T06:15:59.372Z,22.5
2018-07-08T06:16:49.567Z,22.5
2018-07-08T06:17:39.496Z,22.5
2018-07-08T06:18:29.319Z,22.6
2018-07-08T06:19:19.641Z,22.6
2018-07-08T06:20:09.433Z,22.6
2018-07-08T06:20:59.761Z,22.6
2018-07-08T06:21:49.546Z,22.6
2018-07-08T06:22:39.907Z,22.6
2018-07-08T06:23:29.966Z,22.6
2018-07-08T06:24:20.028Z,22.6
2018-07-08T06:25:09.835Z,22.6
2018-07-08T06:26:00.331Z,22.6
2018-07-08T06:26:50.225Z,22.6
2018-07-08T06:27:40.295Z,22.7
2018-07-08T06:28:30.365Z,22.8
2018-07-08T06:29:20.407Z,22.8
2018-07-08T06:30:09.911Z,22.8
2018-07-08T06:31:00.586Z,22.9
2018-07-08T06:31:50.892Z,22.9
2018-07-08T06:32:40.395Z,23.1
2018-07-08T06:33:30.735Z,23.1
2018-07-08T06:34:20.799Z,23.2
2018-07-08T06:35:10.857Z,23.3
2018-07-08T06:36:00.931Z,23.4
2018-07-08T06:36:50.708Z,23.4
2018-07-08T06:37:41.078Z,23.5
2018-07-08T06:38:31.123Z,23.6
2018-07-08T06:39:21.342Z,23.7
2018-07-08T06:40:11.257Z,23.8
2018-07-08T06:41:01.319Z,23.8
2018-07-08T06:41:51.394Z,23.9
2018-07-08T06:42:41.161Z,23.9
2018-07-08T06:43:31.510Z,24
2018-07-08T06:44:21.297Z,24.1
2018-07-08T06:45:11.361Z,24.1
2018-07-08T06:46:01.711Z,24.2
2018-07-08T06:46:51.763Z,24.3
2018-07-08T06:47:41.556Z,24.3
2018-07-08T06:48:31.334Z,24.4
2018-07-08T06:49:21.955Z,24.4
2018-07-08T06:50:12.033Z,24.5
2018-07-08T06:51:02.111Z,24.6
2018-07-08T06:51:52.181Z,24.6
2018-07-08T06:52:42.220Z,24.7
2018-07-08T06:53:32.279Z,24.8
2018-07-08T06:54:22.075Z,24.8
2018-07-08T06:55:12.434Z,24.8
2018-07-08T06:56:01.917Z,24.9
2018-07-08T06:56:52.558Z,24.9
2018-07-08T06:57:42.622Z,25
2018-07-08T06:58:32.410Z,25.1
2018-07-08T06:59:22.749Z,25.1
2018-07-08T07:00:12.806Z,25.2
2018-07-08T07:01:02.963Z,25.3
2018-07-08T07:01:52.949Z,25.4
2018-07-08T07:02:43.004Z,25.6
2018-07-08T07:03:33.119Z,25.7
2018-07-08T07:04:22.573Z,25.9
2018-07-08T07:05:13.210Z,26
2018-07-08T07:06:03.263Z,26.2
2018-07-08T07:06:53.361Z,26.4
2018-07-08T07:07:43.132Z,26.5
2018-07-08T07:08:33.475Z,26.7
2018-07-08T07:09:23.538Z,26.9
2018-07-08T07:10:13.600Z,27.1
2018-07-08T07:11:03.670Z,27.3
2018-07-08T07:11:53.725Z,27.5
2018-07-08T07:12:43.794Z,27.8
2018-07-08T07:13:33.573Z,28
2018-07-08T07:14:23.907Z,28.3
2018-07-08T07:15:13.975Z,28.5
2018-07-08T07:16:04.040Z,28.8
2018-07-08T07:16:53.812Z,29
2018-07-08T07:17:44.165Z,29.2
2018-07-08T07:18:34.231Z,29.4
2018-07-08T07:19:23.726Z,29.6
2018-07-08T07:20:14.406Z,29.8
2018-07-08T07:21:04.437Z,30.1
2018-07-08T07:21:54.222Z,30.3
2018-07-08T07:22:44.554Z,30.4
2018-07-08T07:23:34.616Z,30.7
2018-07-08T07:24:24.688Z,30.9
2018-07-08T07:25:14.749Z,31.1
2018-07-08T07:26:04.585Z,31.3
2018-07-08T07:26:54.876Z,31.5
2018-07-08T07:27:44.957Z,31.7
2018-07-08T07:28:34.810Z,31.9
2018-07-08T07:29:25.074Z,32.1
2018-07-08T07:30:15.143Z,32.3
2018-07-08T07:31:04.932Z,32.5
2018-07-08T07:31:55.266Z,32.7
2018-07-08T07:32:45.336Z,32.9
2018-07-08T07:33:35.398Z,33.1
2018-07-08T07:34:25.490Z,33.3
2018-07-08T07:35:15.278Z,33.5
2018-07-08T07:36:05.315Z,33.8
2018-07-08T07:36:55.513Z,34
2018-07-08T07:37:45.737Z,34.3
2018-07-08T07:38:35.796Z,26.4
2018-07-08T07:39:25.623Z,24.5
2018-07-08T07:40:15.639Z,33.3
2018-07-08T07:41:05.713Z,34.3
2018-07-08T07:41:56.070Z,36.4
2018-07-08T07:42:46.153Z,37.1
2018-07-08T07:43:36.185Z,37.3
2018-07-08T07:44:25.974Z,37.3
2018-07-08T07:45:16.364Z,36.9
2018-07-08T07:46:06.380Z,36.6
2018-07-08T07:46:56.460Z,36.4
2018-07-08T07:47:46.500Z,36.3
2018-07-08T07:48:36.293Z,36.1
2018-07-08T07:49:26.626Z,36.1
2018-07-08T07:50:16.421Z,35.9
2018-07-08T07:51:06.793Z,35.9
2018-07-08T07:51:56.820Z,35.8
2018-07-08T07:52:46.340Z,35.8
2018-07-08T07:53:36.940Z,35.8
2018-07-08T07:54:27.036Z,35.8
2018-07-08T07:55:17.119Z,35.9
2018-07-08T07:56:06.584Z,36.1
2018-07-08T07:56:57.201Z,36.3
2018-07-08T07:57:47.272Z,36.4
2018-07-08T07:58:37.334Z,36.7
2018-07-08T07:59:27.415Z,37.1
2018-07-08T08:00:17.531Z,37.4
2018-07-08T08:01:07.248Z,37.8
2018-07-08T08:01:57.336Z,38.3
2018-07-08T08:02:47.395Z,38.8
2018-07-08T08:03:37.714Z,36.8
2018-07-08T08:04:27.782Z,36.5
2018-07-08T08:05:17.847Z,37.8
2018-07-08T08:06:07.645Z,37.8
2018-07-08T08:06:57.986Z,40.6
2018-07-08T08:07:48.083Z,41.5
2018-07-08T08:08:38.384Z,41.4
2018-07-08T08:09:27.904Z,40.9
2018-07-08T08:10:17.980Z,40.4
2018-07-08T08:11:08.324Z,40.2
2018-07-08T08:11:58.369Z,40.3
2018-07-08T08:12:48.158Z,40.4
2018-07-08T08:13:38.504Z,40.6
2018-07-08T08:14:28.297Z,40.7
2018-07-08T08:15:18.627Z,40.7
2018-07-08T08:16:08.689Z,40.6
2018-07-08T08:16:58.771Z,40.6
2018-07-08T08:17:48.825Z,40.6
2018-07-08T08:18:38.889Z,40.7
2018-07-08T08:19:28.954Z,40.8
2018-07-08T08:20:19.014Z,40.9
2018-07-08T08:21:09.242Z,40.9
2018-07-08T08:21:59.151Z,41
2018-07-08T08:22:49.216Z,41.1
2018-07-08T08:23:39.269Z,41.1
2018-07-08T08:24:29.060Z,41.1
2018-07-08T08:25:18.833Z,41.1
2018-07-08T08:26:09.195Z,41.1
2018-07-08T08:26:59.536Z,41.2
2018-07-08T08:27:49.329Z,41.2
2018-07-08T08:28:39.386Z,41.3
2018-07-08T08:29:29.718Z,41.3
2018-07-08T08:30:19.781Z,41.3
2018-07-08T08:31:09.862Z,41.4
2018-07-08T08:31:59.690Z,41.4
2018-07-08T08:32:50.478Z,41.5
2018-07-08T08:33:39.775Z,41.6
2018-07-08T08:34:30.171Z,41.6
2018-07-08T08:35:20.175Z,41.7
2018-07-08T08:36:10.239Z,41.8
2018-07-08T08:37:00.032Z,41.9
2018-07-08T08:37:50.073Z,41.9
2018-07-08T08:38:40.425Z,41.9
2018-07-08T08:39:30.220Z,42
2018-07-08T08:40:20.567Z,42.1
2018-07-08T08:41:10.617Z,42.2
2018-07-08T08:42:00.695Z,42.3
2018-07-08T08:42:50.765Z,42.3
2018-07-08T08:43:40.827Z,42.3
2018-07-08T08:44:30.622Z,42.3
2018-07-08T08:45:20.961Z,42.4
2018-07-08T08:46:11.008Z,42.4
2018-07-08T08:47:00.807Z,42.6
2018-07-08T08:47:51.153Z,42.8
2018-07-08T08:48:40.926Z,42.9
2018-07-08T08:49:31.283Z,43.1
2018-07-08T08:50:21.052Z,43.3
2018-07-08T08:51:10.830Z,43.5
2018-07-08T08:52:01.487Z,43.6
2018-07-08T08:52:50.982Z,43.8
2018-07-08T08:53:41.615Z,43.8
2018-07-08T08:54:31.394Z,43.8
2018-07-08T08:55:21.167Z,43.9
2018-07-08T08:56:11.790Z,43.9
2018-07-08T08:57:01.570Z,44
2018-07-08T08:57:51.635Z,44.1
2018-07-08T08:58:41.979Z,44.3
2018-07-08T08:59:32.048Z,44.4
2018-07-08T09:00:22.130Z,44.6
2018-07-08T09:01:12.179Z,44.6
2018-07-08T09:02:02.236Z,44.6
2018-07-08T09:02:52.304Z,44.6
2018-07-08T09:03:42.511Z,44.9
2018-07-08T09:04:32.430Z,45.3
2018-07-08T09:05:21.650Z,45.4
2018-07-08T09:06:12.292Z,45.3
2018-07-08T09:07:02.369Z,45.2
2018-07-08T09:07:52.699Z,45
2018-07-08T09:08:42.777Z,44.9
2018-07-08T09:09:32.836Z,44.7
2018-07-08T09:10:22.905Z,44.7
2018-07-08T09:11:12.970Z,44.6
2018-07-08T09:12:02.742Z,44.6
2018-07-08T09:12:52.799Z,44.6
2018-07-08T09:13:43.149Z,44.5
2018-07-08T09:14:33.212Z,44.5
2018-07-08T09:15:23.006Z,44.5
2018-07-08T09:16:13.339Z,44.5
2018-07-08T09:17:03.417Z,44.5
2018-07-08T09:17:53.460Z,44.4
2018-07-08T09:18:42.995Z,44.4
2018-07-08T09:19:33.618Z,44.4
2018-07-08T09:20:23.724Z,44.4
2018-07-08T09:21:13.734Z,44.5
2018-07-08T09:22:03.800Z,44.5
2018-07-08T09:22:53.610Z,44.6
2018-07-08T09:23:44.110Z,44.5
2018-07-08T09:24:33.731Z,44.4
2018-07-08T09:25:24.065Z,44.4
2018-07-08T09:26:14.120Z,44.3
2018-07-08T09:27:03.940Z,44.2
2018-07-08T09:27:54.244Z,44.2
2018-07-08T09:28:44.027Z,44.2
2018-07-08T09:29:34.389Z,44.2
2018-07-08T09:30:24.440Z,44.2
2018-07-08T09:31:14.524Z,44.2
2018-07-08T09:32:04.569Z,44.2
2018-07-08T09:32:54.357Z,44.2
2018-07-08T09:33:44.697Z,44.2
2018-07-08T09:34:34.756Z,44.2
2018-07-08T09:35:24.832Z,44.1
2018-07-08T09:36:14.920Z,44.1
2018-07-08T09:37:04.966Z,44.1
2018-07-08T09:37:55.017Z,44.1
2018-07-08T09:38:45.122Z,44.2
2018-07-08T09:39:34.880Z,44.2
2018-07-08T09:40:24.951Z,44.2
2018-07-08T09:41:15.276Z,44.2
2018-07-08T09:42:05.102Z,44.3
2018-07-08T09:42:55.152Z,44.3
2018-07-08T09:43:45.193Z,44.3
2018-07-08T09:44:35.542Z,44.3
2018-07-08T09:45:25.628Z,44.3
2018-07-08T09:46:15.394Z,44.3
2018-07-08T09:47:05.723Z,44.3
2018-07-08T09:47:55.816Z,44.3
2018-07-08T09:48:45.893Z,44.3
2018-07-08T09:49:35.925Z,44.1
2018-07-08T09:50:25.985Z,44
2018-07-08T09:51:16.050Z,43.9
2018-07-08T09:52:06.106Z,43.9
2018-07-08T09:52:56.170Z,43.8
2018-07-08T09:53:46.248Z,43.8
2018-07-08T09:54:36.308Z,43.7
2018-07-08T09:55:26.390Z,43.6
2018-07-08T09:56:16.456Z,43.6
2018-07-08T09:57:06.537Z,43.5
2018-07-08T09:57:56.719Z,43.4
2018-07-08T09:58:46.637Z,43.3
2018-07-08T09:59:36.697Z,43.3
2018-07-08T10:00:26.486Z,43.2
2018-07-08T10:01:16.832Z,43.1
2018-07-08T10:02:06.907Z,43.1
2018-07-08T10:02:56.971Z,43
2018-07-08T10:03:46.743Z,42.9
2018-07-08T10:04:37.024Z,42.9
2018-07-08T10:05:27.160Z,42.8
2018-07-08T10:06:17.230Z,42.8
2018-07-08T10:07:07.282Z,42.7
2018-07-08T10:07:57.344Z,42.5
2018-07-08T10:08:47.917Z,42.3
2018-07-08T10:09:37.485Z,42
2018-07-08T10:10:27.554Z,41.6
2018-07-08T10:11:17.041Z,41.2
2018-07-08T10:12:07.699Z,40.9
2018-07-08T10:12:57.739Z,40.6
2018-07-08T10:13:48.150Z,40.3
2018-07-08T10:14:37.865Z,40
2018-07-08T10:15:27.919Z,39.8
2018-07-08T10:16:18.184Z,39.5
2018-07-08T10:17:08.159Z,39.3
2018-07-08T10:17:58.255Z,39
2018-07-08T10:18:47.934Z,38.8
2018-07-08T10:19:39.024Z,38.6
2018-07-08T10:20:28.310Z,38.4
2018-07-08T10:21:18.394Z,38.2
2018-07-08T10:22:08.436Z,37.9
2018-07-08T10:22:58.513Z,37.8
2018-07-08T10:23:48.565Z,37.6
2018-07-08T10:24:38.631Z,37.4
2018-07-08T10:25:28.935Z,37.3
2018-07-08T10:26:18.496Z,37.1
2018-07-08T10:27:08.845Z,36.9
2018-07-08T10:27:58.893Z,36.8
2018-07-08T10:28:48.949Z,36.6
2018-07-08T10:29:39.029Z,36.4
2018-07-08T10:30:28.641Z,36.3
2018-07-08T10:31:18.876Z,36.2
2018-07-08T10:32:08.935Z,36.1
2018-07-08T10:32:59.300Z,35.9
2018-07-08T10:33:49.081Z,35.8
2018-07-08T10:34:39.155Z,35.7
2018-07-08T10:35:29.481Z,35.6
2018-07-08T10:36:19.543Z,35.5
2018-07-08T10:37:09.644Z,35.4
2018-07-08T10:37:59.667Z,35.4
2018-07-08T10:38:49.736Z,35.3
2018-07-08T10:39:39.805Z,35.3
2018-07-08T10:40:29.589Z,35.2
2018-07-08T10:41:19.915Z,35.2
2018-07-08T10:42:09.990Z,35.1
2018-07-08T10:43:00.053Z,35.1
2018-07-08T10:43:50.188Z,35.2
2018-07-08T10:44:39.921Z,35.2
2018-07-08T10:45:30.246Z,35.3
2018-07-08T10:46:20.322Z,35.4
2018-07-08T10:47:10.373Z,35.6
2018-07-08T10:48:00.443Z,35.8
2018-07-08T10:48:50.202Z,35.9
2018-07-08T10:49:40.581Z,36.1
2018-07-08T10:50:30.637Z,36.3
2018-07-08T10:51:20.715Z,36.4
2018-07-08T10:52:10.775Z,36.4
2018-07-08T10:53:00.829Z,36.5
2018-07-08T10:53:50.906Z,36.6
2018-07-08T10:54:40.963Z,36.6
2018-07-08T10:55:31.289Z,36.6
2018-07-08T10:56:21.089Z,36.7
2018-07-08T10:57:10.891Z,36.7
2018-07-08T10:58:01.232Z,36.7
2018-07-08T10:58:51.288Z,36.6
2018-07-08T10:59:41.069Z,36.6
2018-07-08T11:00:31.426Z,36.6
2018-07-08T11:01:21.194Z,36.6
2018-07-08T11:02:11.545Z,36.6
2018-07-08T11:03:01.341Z,36.6
2018-07-08T11:03:51.403Z,36.5
2018-07-08T11:04:41.473Z,36.4
2018-07-08T11:05:31.805Z,36.4
2018-07-08T11:06:21.868Z,36.4
2018-07-08T11:07:11.974Z,36.4
2018-07-08T11:08:02.005Z,36.3
2018-07-08T11:08:51.776Z,36.3
2018-07-08T11:09:42.141Z,36.3
2018-07-08T11:10:31.920Z,36.3
2018-07-08T11:11:22.261Z,36.2
2018-07-08T11:12:12.041Z,36.1
2018-07-08T11:13:02.384Z,36.1
2018-07-08T11:13:52.437Z,36.1
2018-07-08T11:14:42.528Z,36.1